AirNav   Bose ProFlight Series 2 Headset
 
 903 users online  

89FD Tranquility Pad Heliport
Dade City, Florida, USA

GOING TO DADE CITY?


FAA INFORMATION EFFECTIVE 30 JANUARY 2020

Location

FAA Identifier: 89FD
Lat/Long: 28-24-04.9000N 082-14-33.4000W
28-24.081667N 082-14.556667W
28.4013611,-82.2426111
(estimated)
Elevation: 38 ft. / 12 m (estimated)
From city: 8 miles E of DADE CITY, FL
Time zone: UTC -5 (UTC -4 during Daylight Saving Time)
Zip code: 33523

Heliport Operations

Heliport use: Private use. Permission required prior to landing
Activation date: 05/2005
Control tower: no
ARTCC: MIAMI CENTER
FSS: SAINT PETERSBURG FLIGHT SERVICE STATION
Attendance: UNATNDD
Wind indicator: yes
Segmented circle: no

Heliport Communications

WX AWOS-3PT at ZPH (11 nm SE): 118.975 (813-780-0031)
WX ASOS at BKV (12 nm W): 134.725 (352-799-5881)

Nearby radio navigation aids

VOR radial/distance  VOR name  Freq  Var
LALr333/27.7LAKELAND VORTAC116.0001E
PIEr043/37.7ST PETERSBURG VORTAC116.4005W

Heliport Services

Runway Information

Helipad H1

Dimensions: 250 x 250 ft. / 76 x 76 m
Surface: turf
Traffic pattern: leftleft

Heliport Ownership and Management from official FAA records

Ownership: Privately-owned
Owner: MILE HI INC
34745 TRANQUIVIEW LN
DADE, FL 33523
Phone 8136828002
Manager: JAMES NEWTON
609 OREGON AVE
DADE, FL 33523
Phone 8136828002

Heliport Operational Statistics

Aircraft based on the field: 1
Helicopters: 1
    

Additional Remarks

A52-H1 50 FT TREES 200 FT S OF PAD.
FOR CD CTC TAMPA APCH AT 813-878-2528

Instrument Procedures

There are no published instrument procedures at 89FD.

Some nearby airports with instrument procedures:

KZPH - Zephyrhills Municipal Airport (11 nm SE)
KBKV - Brooksville-Tampa Bay Regional Airport (12 nm W)
KVDF - Tampa Executive Airport (24 nm S)
KPCM - Plant City Airport (24 nm S)
KINF - Inverness Airport (24 nm N)
 
Loc | Ops | Rwys | IFR | FBO | Links
Com | Nav | Svcs | Stats | Notes


 
Area around 89FD (Tranquility Pad Heliport)
 
Road maps at: MapQuest Bing Google
 
Aerial photo
No photo
 
Sectional chart

 
Airport distance calculator
Flying to Tranquility Pad Heliport? Find the distance to fly.

From to 89FD

Sunrise and sunset
Times for 16-Feb-2020
 Local
(UTC-5)
 Zulu
(UTC)
Morning civil twilight06:4311:43
Sunrise07:0712:07
Sunset18:1923:19
Evening civil twilight18:4323:43

Current date and time
Zulu (UTC)  17-Feb-2020 01:11:35
Local (UTC-5)  16-Feb-2020 20:11:35
 
METAR
KZPH 
11nm SE 
170055Z AUTO 00000KT 10SM SCT025 SCT041 SCT065 21/19 A3008 RMK A02 T02070194
KBKV 
12nm W 
170053Z 31005KT 10SM CLR 20/17 A3009 RMK AO2 SLP187 T02000172
TAF
KLAL 
29nm SE 
161720Z 1618/1718 14012G18KT P6SM SCT025 BKN035 FM162100 20007KT P6SM VCSH BKN035 BKN100 FM162300 28005KT P6SM FEW015 SCT025 BKN100 FM170200 VRB03KT P6SM SCT015 SCT025 BKN080 FM170800 00000KT 3SM BR SCT006 OVC015 TEMPO 1708/1712 1SM BR BKN006 FM171500 VRB03KT P6SM SCT015 BKN025 OVC050
KTPA 
30nm SW 
162059Z 1621/1724 24011KT P6SM SCT035 BKN120 FM162300 29007KT P6SM FEW015 SCT025 BKN100 FM170200 VRB03KT P6SM SCT015 SCT025 BKN080 FM170800 00000KT 4SM BR SCT006 OVC015 TEMPO 1708/1712 2SM BR BKN006 FM171500 13005KT P6SM SCT015 BKN025 OVC050 FM171900 23006KT P6SM SCT035 BKN050
KLEE 
34nm NE 
162201Z 1622/1718 VRB05KT P6SM VCSH SCT035 BKN090 BKN250 TEMPO 1622/1624 5SM -SHRA BKN035 FM170600 VRB03KT 6SM BR SCT008 SCT100 BKN200 TEMPO 1709/1713 2SM BR FEW004 BKN008 FM171500 VRB04KT P6SM BKN015 BKN040
NOTAMs
Click for the latest NOTAMs
NOTAMs are issued by the DoD/FAA and will open in a separate window not controlled by AirNav.

 

 
 

Would you like to see your business listed on this page?

 If your business provides an interesting product or service to pilots, flight crews, aircraft, or users of the Tranquility Pad Heliport, you should consider listing it here.  To start the listing process, click on the button below
 
Add a business
 

Other Pages about Tranquility Pad Heliport

Update a link
 
Copyright © AirNav, LLC. All rights reserved. Privacy Policy  Contact